Time;durP1;ratioP1;P1;durP2;ratioP2;P2;SDS_P1;SDS_P2;PMS_P1;PMS_P2;Temp;Humidity;BMP_temperature;BMP_pressure;BME280_temperature;BME280_humidity;BME280_pressure;Samples;Min_cycle;Max_cycle;Signal;HPM_P1;HPM_P2
2023/03/04 00:00:56;;;;;;;16.47;8.93;;;6.10;99.90;;;;;;5037325;28;20644;-64
2023/03/04 00:03:22;;;;;;;15.07;7.47;;;6.30;99.90;;;;;;5038085;28;20193;-66
2023/03/04 00:05:48;;;;;;;11.20;6.27;;;6.20;99.90;;;;;;5036916;28;20278;-64
2023/03/04 00:08:13;;;;;;;11.17;6.43;;;6.30;99.90;;;;;;5055389;28;20186;-65
2023/03/04 00:10:39;;;;;;;13.30;7.70;;;6.40;99.90;;;;;;5045919;28;20663;-65
2023/03/04 00:13:05;;;;;;;10.30;7.83;;;6.20;99.90;;;;;;5078494;28;20589;-65
2023/03/04 00:15:30;;;;;;;10.33;7.00;;;6.20;99.90;;;;;;5049370;28;20190;-65
2023/03/04 00:17:56;;;;;;;14.33;7.93;;;6.50;99.90;;;;;;5053723;28;20202;-65
2023/03/04 00:20:22;;;;;;;12.43;8.23;;;6.40;99.90;;;;;;5084711;28;20595;-64
2023/03/04 00:22:47;;;;;;;15.30;9.00;;;6.30;99.90;;;;;;5055867;28;20558;-64
2023/03/04 00:25:13;;;;;;;13.77;8.10;;;6.40;99.90;;;;;;5059287;28;20192;-65
2023/03/04 00:27:39;;;;;;;13.03;7.70;;;6.50;99.90;;;;;;5062226;28;20197;-65
2023/03/04 00:30:06;;;;;;;16.43;10.63;;;6.50;99.90;;;;;;5047042;28;20297;-64
2023/03/04 00:32:32;;;;;;;21.13;12.33;;;6.50;99.90;;;;;;5061503;28;20179;-65
2023/03/04 00:34:58;;;;;;;16.80;8.80;;;6.40;99.90;;;;;;5042365;28;20527;-64
2023/03/04 00:37:23;;;;;;;12.33;9.43;;;6.30;99.90;;;;;;5048365;28;20221;-65
2023/03/04 00:39:49;;;;;;;14.83;8.27;;;6.30;99.90;;;;;;5047618;28;20640;-65
2023/03/04 00:42:14;;;;;;;14.43;9.13;;;6.30;99.90;;;;;;5034985;28;20675;-65
2023/03/04 00:44:40;;;;;;;16.40;8.57;;;6.30;99.90;;;;;;5042884;28;20201;-65
2023/03/04 00:47:06;;;;;;;19.10;8.97;;;6.50;99.90;;;;;;5042891;28;20670;-65
2023/03/04 00:49:31;;;;;;;18.50;9.00;;;6.70;99.90;;;;;;5039094;28;20286;-65
2023/03/04 00:51:57;;;;;;;14.20;8.73;;;6.70;99.90;;;;;;5052745;28;20264;-64
2023/03/04 00:54:23;;;;;;;12.77;9.23;;;6.80;99.90;;;;;;5034861;28;20183;-65
2023/03/04 00:56:49;;;;;;;17.83;8.87;;;6.70;99.90;;;;;;5055973;28;20237;-65
2023/03/04 00:59:14;;;;;;;13.30;8.87;;;6.90;99.90;;;;;;5046934;28;20737;-67
2023/03/04 01:01:40;;;;;;;14.40;7.93;;;7.00;99.90;;;;;;5052182;28;20186;-64
2023/03/04 01:04:05;;;;;;;13.17;7.87;;;7.00;99.90;;;;;;5078972;28;20175;-65
2023/03/04 01:06:31;;;;;;;14.63;7.93;;;6.70;99.90;;;;;;5033976;28;20717;-65
2023/03/04 01:08:57;;;;;;;12.60;9.23;;;6.50;99.90;;;;;;5032516;28;20186;-64
2023/03/04 01:11:23;;;;;;;14.17;7.30;;;6.40;99.90;;;;;;5042135;28;20269;-65
2023/03/04 01:13:48;;;;;;;14.43;7.03;;;6.30;99.90;;;;;;5045304;28;20195;-65
2023/03/04 01:16:14;;;;;;;17.37;8.60;;;6.30;99.90;;;;;;5050128;28;20237;-65
2023/03/04 01:18:40;;;;;;;15.77;7.23;;;6.50;99.90;;;;;;5066422;28;20243;-65
2023/03/04 01:21:05;;;;;;;14.53;7.77;;;6.80;99.90;;;;;;5051000;28;20197;-65
2023/03/04 01:23:31;;;;;;;14.70;9.30;;;6.90;99.90;;;;;;5092096;28;20178;-65
2023/03/04 01:25:57;;;;;;;18.30;6.87;;;6.90;99.90;;;;;;5069745;28;20189;-65
2023/03/04 01:28:23;;;;;;;12.10;8.57;;;6.80;99.90;;;;;;5068524;28;20189;-65
2023/03/04 01:30:48;;;;;;;10.80;7.87;;;6.70;99.90;;;;;;5063984;28;20200;-65
2023/03/04 01:33:14;;;;;;;10.47;7.70;;;6.70;99.90;;;;;;5052519;28;20273;-65
2023/03/04 01:35:40;;;;;;;10.43;6.30;;;6.80;99.90;;;;;;5040440;28;20174;-65
2023/03/04 01:38:05;;;;;;;15.77;7.17;;;7.20;99.90;;;;;;5050032;28;20639;-65
2023/03/04 01:40:32;;;;;;;9.27;7.27;;;7.30;99.90;;;;;;5051301;28;20186;-65
2023/03/04 01:42:58;;;;;;;13.23;6.60;;;7.10;99.90;;;;;;5033120;28;20722;-64
2023/03/04 01:45:24;;;;;;;19.43;7.83;;;6.90;99.90;;;;;;5070920;28;20257;-65
2023/03/04 01:47:51;;;;;;;11.90;7.23;;;6.80;99.90;;;;;;5051987;28;20201;-65
2023/03/04 01:50:34;;;;;;;12.33;7.20;;;6.80;99.90;;;;;;5038529;28;20196;-66
2023/03/04 01:53:01;;;;;;;16.50;7.20;;;6.90;99.90;;;;;;5035738;28;20193;-65
2023/03/04 01:55:28;;;;;;;11.53;7.70;;;6.80;99.90;;;;;;5076901;28;20549;-65
2023/03/04 01:57:56;;;;;;;7.30;5.87;;;6.80;99.90;;;;;;5039755;28;20194;-65
2023/03/04 02:00:22;;;;;;;13.57;7.43;;;6.70;99.90;;;;;;5047901;28;20214;-65
2023/03/04 02:02:50;;;;;;;13.17;6.93;;;6.80;99.90;;;;;;5049284;28;20652;-65
2023/03/04 02:05:16;;;;;;;16.53;7.30;;;6.70;99.90;;;;;;5047507;28;20191;-65
2023/03/04 02:07:43;;;;;;;10.10;6.03;;;6.70;99.90;;;;;;5044855;28;20590;-65
2023/03/04 02:10:10;;;;;;;8.37;6.57;;;6.70;99.90;;;;;;5038039;28;20186;-64
2023/03/04 02:12:35;;;;;;;13.23;7.43;;;6.80;99.90;;;;;;5046231;28;20601;-65
2023/03/04 02:15:02;;;;;;;10.07;5.80;;;7.00;99.90;;;;;;5041263;28;20217;-65
2023/03/04 02:17:28;;;;;;;16.23;6.30;;;7.00;99.90;;;;;;5036095;28;20202;-65
2023/03/04 02:20:02;;;;;;;8.57;6.97;;;6.70;99.90;;;;;;5040356;28;20648;-65
2023/03/04 02:22:28;;;;;;;9.27;5.97;;;6.50;99.90;;;;;;5046506;28;20186;-65
2023/03/04 02:25:02;;;;;;;11.53;6.10;;;6.60;99.90;;;;;;5033972;28;20206;-65
2023/03/04 02:27:28;;;;;;;9.93;6.00;;;6.50;99.90;;;;;;5043777;28;20192;-64
2023/03/04 02:29:53;;;;;;;8.57;6.77;;;6.60;99.90;;;;;;5061692;28;20278;-66
2023/03/04 02:32:19;;;;;;;11.57;6.90;;;6.70;99.90;;;;;;5035469;28;20213;-65
2023/03/04 02:34:48;;;;;;;10.77;6.57;;;6.70;99.90;;;;;;5049366;28;20213;-64
2023/03/04 02:37:14;;;;;;;13.90;6.40;;;6.60;99.90;;;;;;5052805;28;20201;-65
2023/03/04 02:39:45;;;;;;;7.63;6.00;;;6.70;99.90;;;;;;5033854;28;20533;-65
2023/03/04 02:42:11;;;;;;;11.60;6.37;;;6.90;99.90;;;;;;5054182;28;20577;-65
2023/03/04 02:44:40;;;;;;;10.70;5.67;;;6.80;99.90;;;;;;5050943;28;20182;-65
2023/03/04 02:47:08;;;;;;;8.60;6.27;;;6.80;99.90;;;;;;5039490;28;20182;-65
2023/03/04 02:49:35;;;;;;;8.37;5.73;;;6.70;99.90;;;;;;5037812;28;20265;-65
2023/03/04 02:52:12;;;;;;;7.23;5.87;;;6.70;99.90;;;;;;5082280;28;20197;-65
2023/03/04 02:54:39;;;;;;;9.73;5.30;;;6.50;99.90;;;;;;5050019;28;20193;-65
2023/03/04 02:57:07;;;;;;;14.07;6.70;;;6.50;99.90;;;;;;5048175;28;20257;-65
2023/03/04 02:59:34;;;;;;;19.73;6.53;;;6.50;99.90;;;;;;5033504;28;20248;-65
2023/03/04 03:02:00;;;;;;;9.67;5.73;;;6.40;99.90;;;;;;5060224;28;20280;-65
2023/03/04 03:04:27;;;;;;;12.37;6.93;;;6.30;99.90;;;;;;5069356;28;20338;-65
2023/03/04 03:06:53;;;;;;;10.00;6.03;;;6.30;99.90;;;;;;5042307;28;20269;-64
2023/03/04 03:09:20;;;;;;;9.37;5.70;;;6.30;99.90;;;;;;5058789;28;20308;-65
2023/03/04 03:11:45;;;;;;;6.73;4.90;;;6.40;99.90;;;;;;5065792;28;20200;-65
2023/03/04 03:14:11;;;;;;;12.73;6.23;;;6.60;99.90;;;;;;5059158;28;20181;-64
2023/03/04 03:16:37;;;;;;;12.17;6.87;;;6.80;99.90;;;;;;5058424;28;20279;-64
2023/03/04 03:19:03;;;;;;;12.50;5.60;;;6.80;99.90;;;;;;5047132;28;20273;-65
2023/03/04 03:21:28;;;;;;;15.40;5.67;;;6.80;99.90;;;;;;5045352;28;20329;-64
2023/03/04 03:23:54;;;;;;;11.97;6.40;;;6.70;99.90;;;;;;5031242;28;20606;-65
2023/03/04 03:26:20;;;;;;;11.23;6.40;;;6.50;99.90;;;;;;5046968;28;20190;-65
2023/03/04 03:28:45;;;;;;;12.80;6.03;;;6.40;99.90;;;;;;5028241;28;20549;-65
2023/03/04 03:31:12;;;;;;;9.23;6.47;;;6.30;99.90;;;;;;5046031;28;20239;-65
2023/03/04 03:33:37;;;;;;;11.97;7.07;;;6.50;99.90;;;;;;5043348;28;20190;-65
2023/03/04 03:36:04;;;;;;;9.23;6.30;;;6.40;99.90;;;;;;5022056;28;20222;-65
2023/03/04 03:38:30;;;;;;;12.37;7.00;;;6.40;99.90;;;;;;5043805;28;20637;-64
2023/03/04 03:40:55;;;;;;;11.67;6.87;;;6.30;99.90;;;;;;5059519;28;20239;-65
2023/03/04 03:43:21;;;;;;;15.77;6.43;;;6.30;99.90;;;;;;5051617;28;20695;-65
2023/03/04 03:45:46;;;;;;;14.93;6.93;;;6.30;99.90;;;;;;5045699;28;20669;-65
2023/03/04 03:48:12;;;;;;;12.57;6.33;;;6.40;99.90;;;;;;5056292;28;20229;-64
2023/03/04 03:50:38;;;;;;;11.57;6.90;;;6.40;99.90;;;;;;5049688;28;20231;-65
2023/03/04 03:53:04;;;;;;;9.73;6.83;;;6.30;99.90;;;;;;5036447;28;20195;-64
2023/03/04 03:55:30;;;;;;;15.27;7.37;;;6.30;99.90;;;;;;5054520;28;20196;-65
2023/03/04 03:57:55;;;;;;;12.80;7.00;;;6.40;99.90;;;;;;5044246;28;20191;-64
2023/03/04 04:00:21;;;;;;;16.30;6.80;;;6.30;99.90;;;;;;5066565;28;20206;-64
2023/03/04 04:02:47;;;;;;;18.97;6.73;;;6.30;99.90;;;;;;5035425;28;20190;-65
2023/03/04 04:05:13;;;;;;;10.33;6.43;;;6.30;99.90;;;;;;5051714;28;20182;-65
2023/03/04 04:07:40;;;;;;;14.37;6.63;;;6.50;99.90;;;;;;5046765;28;20272;-65
2023/03/04 04:10:07;;;;;;;7.13;5.57;;;6.60;99.90;;;;;;5037839;28;20277;-65
2023/03/04 04:12:33;;;;;;;15.80;7.23;;;6.80;99.90;;;;;;5048508;28;20186;-66
2023/03/04 04:14:58;;;;;;;13.77;6.57;;;6.80;99.90;;;;;;5040447;28;20197;-65
2023/03/04 04:17:24;;;;;;;17.70;7.80;;;6.80;99.90;;;;;;5069117;28;20259;-65
2023/03/04 04:19:50;;;;;;;18.67;8.43;;;6.90;99.90;;;;;;5052257;28;20229;-66
2023/03/04 04:22:19;;;;;;;13.73;6.90;;;6.90;99.90;;;;;;5048113;28;20590;-65
2023/03/04 04:24:45;;;;;;;9.43;7.43;;;7.00;99.90;;;;;;5048700;28;20190;-64
2023/03/04 04:27:11;;;;;;;17.80;8.43;;;7.00;99.90;;;;;;5040937;28;20190;-65
2023/03/04 04:29:37;;;;;;;8.90;6.17;;;6.90;99.90;;;;;;5041196;28;20179;-64
2023/03/04 04:32:03;;;;;;;9.40;7.27;;;7.00;99.90;;;;;;5052394;28;20197;-65
2023/03/04 04:34:29;;;;;;;10.37;6.17;;;6.80;99.90;;;;;;5039421;28;20239;-65
2023/03/04 04:36:55;;;;;;;14.93;7.67;;;6.60;99.90;;;;;;5033320;28;20223;-64
2023/03/04 04:39:21;;;;;;;11.87;7.50;;;6.60;99.90;;;;;;5034376;28;20187;-64
2023/03/04 04:41:47;;;;;;;12.33;7.73;;;6.70;99.90;;;;;;5040304;28;20197;-65
2023/03/04 04:44:14;;;;;;;13.93;7.57;;;6.80;99.90;;;;;;5072838;28;20182;-65
2023/03/04 04:46:40;;;;;;;15.17;7.20;;;7.00;99.90;;;;;;5048523;28;20193;-64
2023/03/04 04:49:06;;;;;;;22.63;7.97;;;7.10;99.90;;;;;;5040391;28;20193;-65
2023/03/04 04:51:33;;;;;;;11.63;6.90;;;7.10;99.90;;;;;;5077645;28;20273;-65
2023/03/04 04:54:00;;;;;;;15.30;7.90;;;7.10;99.90;;;;;;5041788;28;20186;-65
2023/03/04 04:56:27;;;;;;;12.83;8.30;;;7.00;99.90;;;;;;5045026;28;20256;-66
2023/03/04 04:58:57;;;;;;;19.07;7.23;;;6.90;99.90;;;;;;5044734;28;20210;-65
2023/03/04 05:01:24;;;;;;;23.53;9.63;;;7.00;99.90;;;;;;5040581;28;20629;-65
2023/03/04 05:03:52;;;;;;;10.67;7.50;;;6.90;99.90;;;;;;5033877;28;20179;-65
2023/03/04 05:06:18;;;;;;;7.70;6.00;;;7.00;99.90;;;;;;5037608;28;20201;-65
2023/03/04 05:08:44;;;;;;;20.77;8.43;;;7.10;99.90;;;;;;5046780;28;20178;-65
2023/03/04 05:11:09;;;;;;;8.73;6.53;;;7.10;99.90;;;;;;5047996;28;20193;-64
2023/03/04 05:13:35;;;;;;;13.37;7.27;;;6.90;99.90;;;;;;5034797;28;20202;-65
2023/03/04 05:16:01;;;;;;;11.77;7.73;;;6.80;99.90;;;;;;5047111;28;20593;-68
2023/03/04 05:18:27;;;;;;;8.13;5.03;;;6.90;99.90;;;;;;5038918;28;20236;-65
2023/03/04 05:20:58;;;;;;;16.90;6.17;;;6.80;99.90;;;;;;5040566;28;20186;-65
2023/03/04 05:23:25;;;;;;;6.07;4.83;;;6.60;99.90;;;;;;5051677;28;20179;-64
2023/03/04 05:25:51;;;;;;;6.43;3.93;;;6.70;99.90;;;;;;5046193;28;20185;-64
2023/03/04 05:28:17;;;;;;;14.57;4.63;;;6.80;99.90;;;;;;5045595;28;20190;-64
2023/03/04 05:30:44;;;;;;;6.30;4.40;;;6.60;99.90;;;;;;5048186;28;20269;-65
2023/03/04 05:33:11;;;;;;;7.97;4.30;;;6.50;99.90;;;;;;5059541;28;20182;-64
2023/03/04 05:35:39;;;;;;;5.27;3.87;;;6.60;99.90;;;;;;5054473;28;20559;-65
2023/03/04 05:38:06;;;;;;;7.50;4.20;;;6.60;99.90;;;;;;5098234;28;20248;-65
2023/03/04 05:40:32;;;;;;;11.30;4.50;;;6.60;99.90;;;;;;5045412;28;20182;-64
2023/03/04 05:42:58;;;;;;;4.50;3.37;;;6.30;99.90;;;;;;5034431;28;20249;-64
2023/03/04 05:45:25;;;;;;;2.90;2.70;;;6.20;99.90;;;;;;5039469;28;20228;-65
2023/03/04 05:47:51;;;;;;;5.87;2.90;;;6.30;99.90;;;;;;5036571;28;20178;-65
2023/03/04 05:50:18;;;;;;;9.53;3.23;;;6.40;99.90;;;;;;5078161;28;20182;-64
2023/03/04 05:52:43;;;;;;;8.00;2.80;;;6.40;99.90;;;;;;5031953;28;20194;-65
2023/03/04 05:55:10;;;;;;;6.87;2.80;;;6.30;99.90;;;;;;5039434;28;20183;-64
2023/03/04 05:57:35;;;;;;;8.13;5.27;;;6.30;99.90;;;;;;5070482;28;20230;-64
2023/03/04 06:00:04;;;;;;;11.03;5.97;;;6.40;99.90;;;;;;5050204;28;20256;-65
2023/03/04 06:02:29;;;;;;;7.27;3.93;;;6.30;99.90;;;;;;5040235;28;20458;-65
2023/03/04 06:04:55;;;;;;;7.83;3.40;;;6.30;99.90;;;;;;5039824;28;20257;-65
2023/03/04 06:07:21;;;;;;;7.27;2.93;;;6.40;99.90;;;;;;5034845;28;20209;-64
2023/03/04 06:09:46;;;;;;;8.73;3.03;;;6.40;99.90;;;;;;5047709;28;20576;-65
2023/03/04 06:12:12;;;;;;;4.40;2.20;;;6.50;99.90;;;;;;5034734;28;20186;-65
2023/03/04 06:14:38;;;;;;;7.17;2.87;;;6.60;99.90;;;;;;5052319;28;20699;-64
2023/03/04 06:17:04;;;;;;;7.10;2.60;;;6.40;99.90;;;;;;5055389;28;20272;-65
2023/03/04 06:19:30;;;;;;;3.83;2.60;;;6.40;99.90;;;;;;5051213;28;20652;-65
2023/03/04 06:21:55;;;;;;;8.77;3.47;;;6.40;99.90;;;;;;5047899;28;20185;-65
2023/03/04 06:24:21;;;;;;;5.07;2.90;;;6.50;99.90;;;;;;5045943;28;20277;-65
2023/03/04 06:26:47;;;;;;;5.27;2.60;;;6.60;99.90;;;;;;5044762;28;20245;-64
2023/03/04 06:29:13;;;;;;;4.00;3.70;;;6.80;99.90;;;;;;5042792;28;20274;-64
2023/03/04 06:31:40;;;;;;;6.13;2.57;;;6.80;99.90;;;;;;5049343;28;20182;-64
2023/03/04 06:34:07;;;;;;;4.27;2.43;;;6.80;99.90;;;;;;5047513;28;20720;-64
2023/03/04 06:36:33;;;;;;;7.90;3.63;;;6.70;99.90;;;;;;5038472;28;20677;-64
2023/03/04 06:39:00;;;;;;;19.77;5.70;;;6.50;99.90;;;;;;5041692;28;20202;-64
2023/03/04 06:41:26;;;;;;;9.17;6.17;;;6.30;99.90;;;;;;5037146;28;20644;-64
2023/03/04 06:43:54;;;;;;;13.63;5.43;;;6.20;99.90;;;;;;5047331;28;20193;-64
2023/03/04 06:46:20;;;;;;;6.87;4.43;;;6.30;99.90;;;;;;5058205;28;20518;-64
2023/03/04 06:48:46;;;;;;;6.10;3.60;;;6.30;99.90;;;;;;5042829;28;20184;-64
2023/03/04 06:51:12;;;;;;;4.00;3.50;;;6.40;99.90;;;;;;5045223;28;20182;-64
2023/03/04 06:53:39;;;;;;;7.47;4.17;;;6.40;99.90;;;;;;5076336;28;20182;-64
2023/03/04 06:56:05;;;;;;;5.87;2.77;;;6.40;99.90;;;;;;5046152;28;20242;-64
2023/03/04 06:58:31;;;;;;;6.97;3.13;;;6.50;99.90;;;;;;5048270;28;20189;-65
2023/03/04 07:00:57;;;;;;;7.23;2.53;;;6.70;99.90;;;;;;5046621;28;20191;-64
2023/03/04 07:03:22;;;;;;;3.53;3.17;;;6.80;99.90;;;;;;5055176;28;20644;-64
2023/03/04 07:05:48;;;;;;;7.60;3.57;;;6.90;99.90;;;;;;5032727;28;20186;-64
2023/03/04 07:08:14;;;;;;;6.13;3.57;;;6.90;99.90;;;;;;5058395;28;20226;-64
2023/03/04 07:10:40;;;;;;;4.13;2.20;;;6.90;99.90;;;;;;5039765;28;20194;-64
2023/03/04 07:13:05;;;;;;;5.17;2.80;;;7.10;99.90;;;;;;5049540;28;20268;-64
2023/03/04 07:15:31;;;;;;;6.27;3.13;;;7.10;99.90;;;;;;5062837;28;20193;-65
2023/03/04 07:17:57;;;;;;;5.07;2.77;;;7.10;99.90;;;;;;5051494;28;20205;-64
2023/03/04 07:20:23;;;;;;;8.03;3.63;;;7.20;99.90;;;;;;5051125;28;20236;-65
2023/03/04 07:22:49;;;;;;;4.43;3.27;;;7.20;99.90;;;;;;5038274;28;20190;-63
2023/03/04 07:25:16;;;;;;;11.17;3.67;;;7.40;99.90;;;;;;5050080;28;20198;-63
2023/03/04 07:27:42;;;;;;;7.77;3.33;;;7.30;99.90;;;;;;5048875;28;20182;-62
2023/03/04 07:30:08;;;;;;;12.20;3.73;;;7.40;99.90;;;;;;5045543;28;20225;-64
2023/03/04 07:32:34;;;;;;;7.93;3.80;;;7.30;99.90;;;;;;5044902;28;20665;-65
2023/03/04 07:35:01;;;;;;;4.67;4.03;;;7.20;99.90;;;;;;5052405;28;20186;-66
2023/03/04 07:37:26;;;;;;;4.13;3.67;;;7.20;99.90;;;;;;5041709;28;20238;-65
2023/03/04 07:39:52;;;;;;;4.53;3.80;;;7.20;99.90;;;;;;5054013;28;20214;-65
2023/03/04 07:42:18;;;;;;;8.90;3.47;;;7.30;99.90;;;;;;5044935;28;20194;-65
2023/03/04 07:44:43;;;;;;;8.47;3.93;;;7.30;99.90;;;;;;5074051;28;20350;-65
2023/03/04 07:47:09;;;;;;;4.67;3.30;;;7.40;99.90;;;;;;5063505;28;20264;-64
2023/03/04 07:49:35;;;;;;;3.73;3.13;;;7.60;99.90;;;;;;5038484;28;20183;-64
2023/03/04 07:52:04;;;;;;;7.07;2.70;;;7.60;99.90;;;;;;5040618;28;20198;-64
2023/03/04 07:54:30;;;;;;;7.23;2.63;;;7.60;99.90;;;;;;5051191;28;20187;-64
2023/03/04 07:56:56;;;;;;;5.77;3.20;;;7.20;99.90;;;;;;5044079;28;20271;-65
2023/03/04 07:59:21;;;;;;;6.33;2.70;;;6.90;99.90;;;;;;5050360;28;20268;-65
2023/03/04 08:01:47;;;;;;;2.40;1.93;;;6.80;99.90;;;;;;5060640;28;20177;-65
2023/03/04 08:04:13;;;;;;;3.70;2.10;;;6.80;99.90;;;;;;5040570;28;20230;-66
2023/03/04 08:06:40;;;;;;;3.73;1.80;;;6.70;99.90;;;;;;5044199;28;20187;-63
2023/03/04 08:09:08;;;;;;;3.50;1.77;;;6.80;99.90;;;;;;5048874;28;20194;-64
2023/03/04 08:11:35;;;;;;;3.93;2.17;;;6.60;99.90;;;;;;5050943;28;20188;-64
2023/03/04 08:14:01;;;;;;;3.03;2.10;;;6.50;99.90;;;;;;5042698;28;20285;-66
2023/03/04 08:16:27;;;;;;;2.07;1.67;;;6.70;99.90;;;;;;5042175;28;20731;-65
2023/03/04 08:18:56;;;;;;;2.03;1.93;;;6.70;99.90;;;;;;5040307;28;20731;-67
2023/03/04 08:21:23;;;;;;;2.33;2.13;;;6.80;99.90;;;;;;5056733;28;20660;-67
2023/03/04 08:23:49;;;;;;;3.63;2.30;;;7.10;99.90;;;;;;5040595;28;20554;-68
2023/03/04 08:26:22;;;;;;;1.37;1.33;;;7.20;99.90;;;;;;5079549;28;20181;-68
2023/03/04 08:28:47;;;;;;;3.80;2.60;;;7.30;99.90;;;;;;5049440;28;20637;-66
2023/03/04 08:31:16;;;;;;;3.40;2.20;;;7.40;99.90;;;;;;5039964;28;20192;-67
2023/03/04 08:33:42;;;;;;;4.00;2.17;;;7.40;99.90;;;;;;5034549;28;20179;-67
2023/03/04 08:36:08;;;;;;;4.80;2.20;;;7.40;99.90;;;;;;5022739;28;20269;-67
2023/03/04 08:38:34;;;;;;;4.27;1.90;;;7.50;99.90;;;;;;5035735;28;20541;-66
2023/03/04 08:41:01;;;;;;;5.30;2.63;;;7.50;99.90;;;;;;5035943;28;20194;-67
2023/03/04 08:43:27;;;;;;;5.20;2.70;;;7.30;99.90;;;;;;5036934;28;20175;-67
2023/03/04 08:45:53;;;;;;;2.40;2.20;;;7.10;99.90;;;;;;5060333;28;20624;-67
2023/03/04 08:48:20;;;;;;;2.00;1.70;;;7.10;99.90;;;;;;5041515;28;20290;-66
2023/03/04 08:50:47;;;;;;;4.07;1.97;;;7.00;99.90;;;;;;5052735;28;20260;-67
2023/03/04 08:53:13;;;;;;;4.47;2.20;;;7.10;99.90;;;;;;5039597;28;20185;-66
2023/03/04 08:55:40;;;;;;;2.63;1.90;;;7.20;99.90;;;;;;5052498;28;20261;-66
2023/03/04 08:58:07;;;;;;;2.00;1.90;;;7.20;99.90;;;;;;5049867;28;20210;-66
2023/03/04 09:00:34;;;;;;;4.63;2.57;;;7.20;99.90;;;;;;5045392;28;20257;-65
2023/03/04 09:03:00;;;;;;;2.87;2.67;;;7.40;99.90;;;;;;5047306;28;20178;-65
2023/03/04 09:05:26;;;;;;;2.50;2.30;;;7.50;99.90;;;;;;5041165;28;20190;-65
2023/03/04 09:07:53;;;;;;;6.77;2.27;;;7.50;99.90;;;;;;5040234;28;20187;-64
2023/03/04 09:10:19;;;;;;;4.70;2.67;;;7.60;99.90;;;;;;5045236;28;20220;-66
2023/03/04 09:12:45;;;;;;;3.07;2.77;;;7.70;99.90;;;;;;5037922;28;20187;-65
2023/03/04 09:15:11;;;;;;;8.33;2.77;;;7.90;99.90;;;;;;5035550;28;20641;-65
2023/03/04 09:17:37;;;;;;;2.27;2.07;;;8.00;99.90;;;;;;5042499;28;20726;-67
2023/03/04 09:20:04;;;;;;;5.53;3.77;;;8.20;99.90;;;;;;5046246;28;20209;-67
2023/03/04 09:22:30;;;;;;;6.70;3.33;;;8.20;99.90;;;;;;5048642;28;20178;-68
2023/03/04 09:24:56;;;;;;;7.47;2.67;;;8.20;99.90;;;;;;5049318;28;20201;-66
2023/03/04 09:27:22;;;;;;;4.40;3.40;;;8.10;99.90;;;;;;5017067;28;20209;-67
2023/03/04 09:29:48;;;;;;;8.33;3.37;;;8.10;99.90;;;;;;5043114;28;20190;-66
2023/03/04 09:32:14;;;;;;;10.93;3.70;;;8.00;99.90;;;;;;5034560;28;20182;-65
2023/03/04 09:34:39;;;;;;;5.63;3.00;;;8.00;99.90;;;;;;5033960;28;20179;-64
2023/03/04 09:37:05;;;;;;;5.10;3.47;;;8.00;99.90;;;;;;5038421;28;20754;-64
2023/03/04 09:39:31;;;;;;;10.97;4.17;;;8.10;99.90;;;;;;5038961;28;20193;-67
2023/03/04 09:41:58;;;;;;;6.67;3.80;;;8.20;99.90;;;;;;5046201;28;20178;-66
2023/03/04 09:44:35;;;;;;;5.13;3.70;;;8.00;99.90;;;;;;5038851;28;20645;-65
2023/03/04 09:47:28;;;;;;;5.97;3.50;;;8.10;99.90;;;;;;5035478;28;20188;-65
2023/03/04 09:50:01;;;;;;;5.47;3.73;;;8.30;99.90;;;;;;5033974;28;20193;-65
2023/03/04 09:52:26;;;;;;;6.97;4.80;;;8.40;99.90;;;;;;5044683;28;20179;-65
2023/03/04 09:55:20;;;;;;;9.47;4.63;;;8.50;99.90;;;;;;5042065;28;20186;-66
2023/03/04 09:58:10;;;;;;;5.47;3.90;;;8.80;99.90;;;;;;5047002;28;20245;-67
2023/03/04 10:00:45;;;;;;;4.93;3.70;;;9.20;99.90;;;;;;5046423;28;20177;-66
2023/03/04 10:03:16;;;;;;;8.23;3.97;;;9.40;99.90;;;;;;5036791;28;20709;-67
2023/03/04 10:05:45;;;;;;;5.03;3.77;;;9.40;99.90;;;;;;5041573;28;20179;-67
2023/03/04 10:08:58;;;;;;;10.67;4.90;;;9.40;99.90;;;;;;5036272;28;20236;-68
2023/03/04 10:11:26;;;;;;;5.93;3.80;;;9.40;99.90;;;;;;5030275;28;20213;-67
2023/03/04 10:14:02;;;;;;;8.87;5.07;;;9.10;99.90;;;;;;5035138;28;20280;-68
2023/03/04 10:16:38;;;;;;;12.70;4.87;;;9.30;99.90;;;;;;5035109;28;20206;-66
2023/03/04 10:19:29;;;;;;;10.07;4.30;;;9.20;99.90;;;;;;5091691;28;20658;-67
2023/03/04 10:21:54;;;;;;;6.63;4.37;;;9.10;99.90;;;;;;5050021;28;20870;-67
2023/03/04 10:24:26;;;;;;;6.63;4.77;;;9.20;99.90;;;;;;5054410;28;20598;-67
2023/03/04 10:26:56;;;;;;;12.53;5.53;;;9.00;99.90;;;;;;5045364;28;20702;-67
2023/03/04 10:29:23;;;;;;;10.50;4.70;;;8.90;99.90;;;;;;5039361;28;20232;-67
2023/03/04 10:31:49;;;;;;;9.87;4.33;;;8.90;99.90;;;;;;5047562;28;20178;-68
2023/03/04 10:34:17;;;;;;;5.83;4.07;;;9.20;99.90;;;;;;5038811;28;20182;-68
2023/03/04 10:36:54;;;;;;;6.53;4.20;;;9.60;99.90;;;;;;5049979;28;20634;-67
2023/03/04 10:39:32;;;;;;;9.82;4.90;;;9.90;99.90;;;;;;5045231;28;20175;-68
2023/03/04 10:42:18;;;;;;;10.40;4.07;;;10.40;99.90;;;;;;5040111;28;20192;-68
2023/03/04 10:45:00;;;;;;;7.75;3.75;;;10.60;99.90;;;;;;5046144;28;20182;-68
2023/03/04 10:47:28;;;;;;;7.07;3.88;;;10.70;99.90;;;;;;5036195;28;20709;-69
2023/03/04 10:50:02;;;;;;;6.15;3.67;;;10.60;99.90;;;;;;5040341;28;20273;-68
2023/03/04 10:52:39;;;;;;;6.25;3.65;;;10.30;99.90;;;;;;5045959;28;20181;-68
2023/03/04 10:55:15;;;;;;;4.77;3.77;;;9.80;99.90;;;;;;5042202;28;20181;-68
2023/03/04 10:57:43;;;;;;;7.90;3.77;;;9.70;99.90;;;;;;5044150;28;20216;-64
2023/03/04 11:00:21;;;;;;;6.27;3.70;;;9.60;99.90;;;;;;5041780;28;20178;-66
2023/03/04 11:02:48;;;;;;;4.07;3.33;;;9.50;99.90;;;;;;5049484;28;20217;-66
2023/03/04 11:05:14;;;;;;;7.53;3.60;;;9.50;99.90;;;;;;5050916;28;20602;-66
2023/03/04 11:07:43;;;;;;;13.33;5.67;;;9.50;99.90;;;;;;5042271;28;20214;-64
2023/03/04 11:10:38;;;;;;;5.10;3.97;;;9.60;99.90;;;;;;5036937;28;20174;-67
2023/03/04 11:13:25;;;;;;;7.17;3.97;;;9.40;99.90;;;;;;5042655;28;20174;-65
2023/03/04 11:16:02;;;;;;;6.77;4.10;;;9.30;99.90;;;;;;5042045;28;20197;-66
2023/03/04 11:18:50;;;;;;;6.27;3.50;;;9.40;99.90;;;;;;5053614;28;20170;-64
2023/03/04 11:21:23;;;;;;;6.87;3.63;;;9.60;99.90;;;;;;5041783;28;20262;-67
2023/03/04 11:24:02;;;;;;;5.77;4.60;;;9.70;99.90;;;;;;5056937;28;20274;-67
2023/03/04 11:26:40;;;;;;;6.40;3.40;;;9.80;99.90;;;;;;5041783;28;20170;-67
2023/03/04 11:29:19;;;;;;;6.80;3.47;;;9.90;99.90;;;;;;5043867;28;20179;-69
2023/03/04 11:31:58;;;;;;;6.07;3.77;;;9.90;99.90;;;;;;5057730;28;20671;-66
2023/03/04 11:35:03;;;;;;;10.75;5.32;;;10.00;99.90;;;;;;5040789;28;20173;-66
2023/03/04 11:37:44;;;;;;;8.23;4.18;;;10.00;99.90;;;;;;5013378;28;20230;-66
2023/03/04 11:40:33;;;;;;;5.70;4.40;;;9.90;99.90;;;;;;5036083;28;20174;-65
2023/03/04 11:43:06;;;;;;;7.75;4.47;;;9.60;99.90;;;;;;5032837;28;20198;-65
2023/03/04 11:45:58;;;;;;;7.43;3.90;;;9.70;99.90;;;;;;5048160;28;20244;-68
2023/03/04 11:49:01;;;;;;;8.88;3.53;;;10.00;99.90;;;;;;5042912;28;20181;-67
2023/03/04 11:51:51;;;;;;;15.15;4.75;;;10.20;99.90;;;;;;5042914;28;20182;-67
2023/03/04 11:54:35;;;;;;;6.27;4.20;;;10.30;99.90;;;;;;5045083;28;20179;-68
2023/03/04 11:57:19;;;;;;;9.80;4.40;;;10.50;99.90;;;;;;5039198;28;20226;-68
2023/03/04 12:00:12;;;;;;;36.17;7.72;;;10.50;99.90;;;;;;5035194;28;20191;-70
2023/03/04 12:02:59;;;;;;;6.30;3.93;;;10.40;99.90;;;;;;5036821;28;20733;-63
2023/03/04 12:05:58;;;;;;;4.63;3.63;;;10.30;99.90;;;;;;5039029;28;20256;-65
2023/03/04 12:09:02;;;;;;;8.23;4.63;;;10.20;99.90;;;;;;5040385;28;20641;-65
2023/03/04 12:11:42;;;;;;;6.63;3.80;;;10.00;99.90;;;;;;5030865;28;20583;-65
2023/03/04 12:14:18;;;;;;;11.67;3.73;;;9.90;99.90;;;;;;5037808;28;20696;-65
2023/03/04 12:17:01;;;;;;;13.15;4.03;;;10.00;99.90;;;;;;5042117;28;20679;-64
2023/03/04 12:19:55;;;;;;;9.63;4.55;;;10.10;99.90;;;;;;5044452;28;20227;-72
2023/03/04 12:22:36;;;;;;;9.00;5.28;;;10.30;99.90;;;;;;5052714;28;20178;-65
2023/03/04 12:25:08;;;;;;;7.35;4.22;;;10.50;99.90;;;;;;5052612;28;20284;-69
2023/03/04 12:27:42;;;;;;;7.47;3.65;;;10.60;99.90;;;;;;5057011;28;20193;-67
2023/03/04 12:30:31;;;;;;;4.85;3.83;;;10.80;99.90;;;;;;5055963;28;20178;-67
2023/03/04 12:33:13;;;;;;;5.93;4.13;;;10.80;99.90;;;;;;5056590;28;20181;-68
2023/03/04 12:35:52;;;;;;;4.47;3.13;;;11.00;99.90;;;;;;5035806;28;20190;-65
2023/03/04 12:38:27;;;;;;;8.00;3.25;;;11.20;99.90;;;;;;5052440;28;20186;-67
2023/03/04 12:41:11;;;;;;;5.10;3.65;;;11.30;99.90;;;;;;5036643;28;20193;-68
2023/03/04 12:44:18;;;;;;;5.28;3.13;;;11.20;99.90;;;;;;5050270;28;20201;-66
2023/03/04 12:46:50;;;;;;;3.42;2.58;;;10.90;99.90;;;;;;5037429;28;20556;-68
2023/03/04 12:49:43;;;;;;;6.78;2.85;;;10.40;99.90;;;;;;5064853;28;20186;-68
2023/03/04 12:52:21;;;;;;;5.43;2.67;;;10.20;99.90;;;;;;5045660;28;20227;-65
2023/03/04 12:54:56;;;;;;;3.33;2.53;;;10.10;99.90;;;;;;5061530;28;20208;-65
2023/03/04 12:57:25;;;;;;;9.43;3.42;;;10.10;99.90;;;;;;5048360;28;20236;-65
2023/03/04 13:00:28;;;;;;;6.28;3.50;;;10.20;99.90;;;;;;5042232;28;20178;-66
2023/03/04 13:03:26;;;;;;;7.40;2.78;;;10.30;99.90;;;;;;5037130;28;20261;-63
2023/03/04 13:06:09;;;;;;;3.03;2.00;;;10.30;99.90;;;;;;5063705;28;20193;-65